createdAt,value
2017-12-25T00:00:49.232Z,0
2017-12-25T00:01:59.273Z,0
2017-12-25T00:03:09.060Z,0
2017-12-25T00:04:18.899Z,0
2017-12-25T00:05:28.958Z,0
2017-12-25T00:06:38.749Z,0
2017-12-25T00:07:48.810Z,0
2017-12-25T00:08:58.337Z,0
2017-12-25T00:10:08.496Z,0
2017-12-25T00:11:18.555Z,0
2017-12-25T00:12:28.617Z,0
2017-12-25T00:13:38.406Z,0
2017-12-25T00:14:48.457Z,0
2017-12-25T00:15:58.506Z,0
2017-12-25T00:17:08.304Z,0
2017-12-25T00:18:18.086Z,0
2017-12-25T00:19:28.123Z,0
2017-12-25T00:20:38.192Z,0
2017-12-25T00:21:48.300Z,0
2017-12-25T00:22:58.106Z,0
2017-12-25T00:24:08.170Z,0
2017-12-25T00:25:18.216Z,0
2017-12-25T00:26:28.287Z,0
2017-12-25T00:27:38.335Z,0
2017-12-25T00:28:48.385Z,0
2017-12-25T00:29:58.437Z,0
2017-12-25T00:31:08.485Z,0
2017-12-25T00:32:18.534Z,0
2017-12-25T00:33:28.369Z,0
2017-12-25T00:34:38.409Z,0
2017-12-25T00:35:48.216Z,0
2017-12-25T00:36:58.277Z,0
2017-12-25T00:38:08.337Z,0
2017-12-25T00:39:18.145Z,0
2017-12-25T00:40:28.188Z,0
2017-12-25T00:41:38.234Z,0
2017-12-25T00:42:47.765Z,0
2017-12-25T00:43:57.542Z,0
2017-12-25T00:45:07.613Z,0
2017-12-25T00:46:17.670Z,0
2017-12-25T00:47:27.458Z,0
2017-12-25T00:48:37.240Z,0
2017-12-25T00:49:47.282Z,0
2017-12-25T00:50:57.062Z,0
2017-12-25T00:52:06.859Z,0
2017-12-25T00:53:16.908Z,0
2017-12-25T00:54:26.948Z,0
2017-12-25T00:55:37.010Z,0
2017-12-25T00:56:47.074Z,0
2017-12-25T00:57:57.118Z,0
2017-12-25T00:59:07.185Z,0
2017-12-25T01:00:16.981Z,0
2017-12-25T01:01:26.522Z,0
2017-12-25T01:02:36.564Z,0
2017-12-25T01:03:46.611Z,0
2017-12-25T01:04:56.686Z,0
2017-12-25T01:06:06.735Z,0
2017-12-25T01:07:16.508Z,0
2017-12-25T01:08:26.565Z,0
2017-12-25T01:09:36.610Z,0
2017-12-25T01:10:46.654Z,0
2017-12-25T01:11:56.710Z,0
2017-12-25T01:13:06.750Z,0
2017-12-25T01:14:16.799Z,0
2017-12-25T01:15:26.908Z,0
2017-12-25T01:16:36.974Z,0
2017-12-25T01:17:46.773Z,0
2017-12-25T01:18:56.847Z,0
2017-12-25T01:20:06.971Z,0
2017-12-25T01:21:16.770Z,0
2017-12-25T01:22:26.844Z,0
2017-12-25T01:23:36.621Z,0
2017-12-25T01:24:46.144Z,0
2017-12-25T01:25:56.190Z,0
2017-12-25T01:27:06.253Z,0
2017-12-25T01:28:16.304Z,0
2017-12-25T01:29:26.365Z,0
2017-12-25T01:30:36.173Z,0
2017-12-25T01:31:46.216Z,0
2017-12-25T01:32:56.020Z,0
2017-12-25T01:34:06.080Z,0
2017-12-25T01:35:16.139Z,0
2017-12-25T01:36:25.680Z,0
2017-12-25T01:37:35.725Z,0
2017-12-25T01:38:45.512Z,0
2017-12-25T01:39:55.052Z,0
2017-12-25T01:41:04.854Z,0
2017-12-25T01:42:14.641Z,0
2017-12-25T01:43:24.480Z,0
2017-12-25T01:44:34.518Z,0
2017-12-25T01:45:44.560Z,0
2017-12-25T01:46:54.608Z,0
2017-12-25T01:48:04.653Z,0
2017-12-25T01:49:14.430Z,0
2017-12-25T01:50:24.499Z,0
2017-12-25T01:51:34.559Z,0
2017-12-25T01:52:44.601Z,0
2017-12-25T01:53:54.633Z,0
2017-12-25T01:55:05.386Z,0
2017-12-25T01:56:15.437Z,0
2017-12-25T01:57:25.489Z,0
2017-12-25T01:58:35.541Z,0
2017-12-25T01:59:45.331Z,0
2017-12-25T02:00:55.125Z,0
2017-12-25T02:02:05.190Z,0
2017-12-25T02:03:15.239Z,0
2017-12-25T02:04:25.280Z,0
2017-12-25T02:05:35.056Z,0
2017-12-25T02:06:44.852Z,0
2017-12-25T02:07:54.905Z,0
2017-12-25T02:09:04.956Z,0
2017-12-25T02:10:14.998Z,0
2017-12-25T02:11:25.049Z,0
2017-12-25T02:12:35.110Z,0
2017-12-25T02:13:44.908Z,0
2017-12-25T02:14:54.718Z,0
2017-12-25T02:16:04.490Z,0
2017-12-25T02:17:14.542Z,0
2017-12-25T02:18:24.339Z,0
2017-12-25T02:19:34.385Z,0
2017-12-25T02:20:44.429Z,0
2017-12-25T02:21:54.214Z,0
2017-12-25T02:23:04.261Z,0
2017-12-25T02:24:13.849Z,0
2017-12-25T02:25:23.896Z,0
2017-12-25T02:26:33.441Z,0
2017-12-25T02:27:43.494Z,0
2017-12-25T02:28:53.291Z,0
2017-12-25T02:30:03.338Z,0
2017-12-25T02:31:13.148Z,0
2017-12-25T02:32:23.230Z,0
2017-12-25T02:33:33.274Z,0
2017-12-25T02:34:43.083Z,0
2017-12-25T02:35:52.885Z,0
2017-12-25T02:37:03.029Z,0
2017-12-25T02:38:13.108Z,0
2017-12-25T02:39:23.149Z,0
2017-12-25T02:40:33.259Z,0
2017-12-25T02:41:43.315Z,0
2017-12-25T02:42:53.381Z,0
2017-12-25T02:44:03.417Z,0
2017-12-25T02:45:13.240Z,0
2017-12-25T02:46:23.036Z,0
2017-12-25T02:47:33.483Z,0
2017-12-25T02:48:43.555Z,0
2017-12-25T02:49:53.626Z,0
2017-12-25T02:51:03.433Z,0
2017-12-25T02:52:13.495Z,0
2017-12-25T02:53:23.554Z,0
2017-12-25T02:54:33.715Z,0
2017-12-25T02:55:43.770Z,0
2017-12-25T02:56:53.822Z,0
2017-12-25T02:58:03.363Z,0
2017-12-25T02:59:13.433Z,0
2017-12-25T03:00:23.216Z,0
2017-12-25T03:01:33.268Z,0
2017-12-25T03:02:43.325Z,0
2017-12-25T03:34:22.615Z,0
2017-12-25T03:35:32.652Z,0
2017-12-25T03:36:42.692Z,0
2017-12-25T03:37:52.736Z,0
2017-12-25T03:39:02.768Z,0
2017-12-25T03:40:12.812Z,0
2017-12-25T03:41:22.606Z,0
2017-12-25T03:42:32.404Z,0
2017-12-25T03:43:42.502Z,0
2017-12-25T03:44:52.539Z,0
2017-12-25T03:46:02.583Z,0
2017-12-25T03:47:12.627Z,0
2017-12-25T03:48:22.425Z,0
2017-12-25T03:49:32.235Z,0
2017-12-25T03:50:42.274Z,0
2017-12-25T03:51:52.077Z,0
2017-12-25T03:53:02.131Z,0
2017-12-25T03:54:11.936Z,0
2017-12-25T03:55:21.717Z,0
2017-12-25T03:56:31.512Z,0
2017-12-25T03:57:41.567Z,0
2017-12-25T03:58:51.620Z,0
2017-12-25T04:00:01.667Z,0
2017-12-25T04:01:11.452Z,0
2017-12-25T04:02:21.497Z,0
2017-12-25T04:03:31.537Z,0
2017-12-25T04:04:41.577Z,0
2017-12-25T04:05:51.112Z,0
2017-12-25T04:07:01.196Z,0
2017-12-25T04:08:11.265Z,0
2017-12-25T04:09:21.053Z,0
2017-12-25T04:10:31.114Z,0
2017-12-25T04:11:41.170Z,0
2017-12-25T04:12:51.221Z,0
2017-12-25T04:14:01.265Z,0
2017-12-25T04:15:11.370Z,0
2017-12-25T04:16:20.900Z,0
2017-12-25T04:17:30.422Z,0
2017-12-25T04:18:40.487Z,0
2017-12-25T04:19:50.528Z,0
2017-12-25T04:21:00.634Z,0
2017-12-25T04:22:10.682Z,0
2017-12-25T04:23:20.723Z,0
2017-12-25T04:24:30.769Z,0
2017-12-25T04:25:40.816Z,0
2017-12-25T04:26:50.869Z,0
2017-12-25T04:28:00.388Z,0
2017-12-25T04:29:10.192Z,0
2017-12-25T04:30:20.238Z,0
2017-12-25T04:31:30.307Z,0
2017-12-25T04:32:40.093Z,0
2017-12-25T04:33:50.139Z,0
2017-12-25T04:35:00.197Z,0
2017-12-25T04:36:10.256Z,0
2017-12-25T04:37:19.775Z,0
2017-12-25T04:38:29.832Z,0
2017-12-25T04:39:39.874Z,0
2017-12-25T04:40:49.913Z,0
2017-12-25T04:41:59.707Z,0
2017-12-25T04:43:09.775Z,0
2017-12-25T04:44:19.875Z,0
2017-12-25T04:45:29.917Z,0
2017-12-25T04:46:39.963Z,0
2017-12-25T04:47:49.759Z,0
2017-12-25T04:48:59.847Z,0
2017-12-25T04:50:09.638Z,0
2017-12-25T04:51:19.690Z,0
2017-12-25T04:52:29.496Z,0
2017-12-25T04:53:39.538Z,0
2017-12-25T04:54:49.603Z,0
2017-12-25T04:55:59.661Z,0
2017-12-25T04:57:09.466Z,0
2017-12-25T04:58:19.256Z,0
2017-12-25T04:59:29.301Z,0
2017-12-25T05:00:39.351Z,0
2017-12-25T05:01:49.407Z,0
2017-12-25T05:02:59.202Z,0
2017-12-25T05:04:09.265Z,0
2017-12-25T05:05:19.067Z,0
2017-12-25T05:06:29.129Z,0
2017-12-25T05:07:38.664Z,0
2017-12-25T05:08:48.730Z,0
2017-12-25T05:09:58.775Z,0
2017-12-25T05:11:08.832Z,0
2017-12-25T05:12:18.886Z,0
2017-12-25T05:13:28.678Z,0
2017-12-25T05:14:38.720Z,0
2017-12-25T05:15:48.802Z,0
2017-12-25T05:16:58.603Z,0
2017-12-25T05:18:08.663Z,0
2017-12-25T05:19:18.451Z,0
2017-12-25T05:20:28.503Z,0
2017-12-25T05:21:38.566Z,0
2017-12-25T05:22:48.353Z,0
2017-12-25T05:23:58.413Z,0
2017-12-25T05:25:08.510Z,0
2017-12-25T05:26:18.583Z,0
2017-12-25T05:27:28.618Z,0
2017-12-25T05:28:38.656Z,0
2017-12-25T05:29:48.459Z,0
2017-12-25T05:30:58.239Z,0
2017-12-25T05:32:07.773Z,0
2017-12-25T05:33:18.044Z,0
2017-12-25T05:34:27.820Z,0
2017-12-25T05:35:37.602Z,0
2017-12-25T05:36:47.652Z,0
2017-12-25T05:37:57.714Z,0
2017-12-25T05:39:07.510Z,0
2017-12-25T05:40:17.588Z,0
2017-12-25T05:41:27.404Z,0
2017-12-25T05:42:37.458Z,0
2017-12-25T05:43:47.516Z,0
2017-12-25T05:44:57.563Z,0
2017-12-25T05:46:07.603Z,0
2017-12-25T05:47:17.413Z,0
2017-12-25T05:48:27.520Z,0
2017-12-25T05:49:37.312Z,0
2017-12-25T05:50:47.382Z,0
2017-12-25T05:51:57.477Z,0
2017-12-25T05:53:07.548Z,0
2017-12-25T05:54:17.388Z,0
2017-12-25T05:55:27.424Z,0
2017-12-25T05:56:37.481Z,0
2017-12-25T05:57:47.538Z,0
2017-12-25T05:58:57.596Z,0
2017-12-25T06:00:07.409Z,0
2017-12-25T06:01:17.469Z,0
2017-12-25T06:02:27.518Z,0
2017-12-25T06:03:37.318Z,0
2017-12-25T06:04:47.361Z,0
2017-12-25T06:05:57.410Z,0
2017-12-25T06:07:07.471Z,0
2017-12-25T06:08:17.531Z,0
2017-12-25T06:09:27.325Z,0
2017-12-25T06:10:37.369Z,0
2017-12-25T06:11:47.160Z,0
2017-12-25T06:12:57.222Z,0
2017-12-25T06:14:07.008Z,0
2017-12-25T06:15:16.793Z,0
2017-12-25T06:16:26.858Z,0
2017-12-25T06:17:36.963Z,0
2017-12-25T06:18:47.006Z,0
2017-12-25T06:19:57.045Z,0
2017-12-25T06:21:07.127Z,0
2017-12-25T06:22:17.168Z,0
2017-12-25T06:23:27.234Z,0
2017-12-25T06:24:37.021Z,0
2017-12-25T06:25:47.063Z,0
2017-12-25T06:26:56.863Z,0
2017-12-25T06:28:06.922Z,0
2017-12-25T06:29:16.433Z,0
2017-12-25T06:30:26.470Z,0
2017-12-25T06:31:36.512Z,0
2017-12-25T06:32:46.335Z,0
2017-12-25T06:33:56.114Z,0
2017-12-25T06:35:05.910Z,0
2017-12-25T06:36:15.706Z,0
2017-12-25T06:37:25.786Z,0
2017-12-25T06:38:35.846Z,0
2017-12-25T06:39:45.907Z,0
2017-12-25T06:40:55.956Z,0
2017-12-25T06:42:05.993Z,5
2017-12-25T06:43:15.785Z,5
2017-12-25T06:44:25.825Z,5
2017-12-25T06:45:35.889Z,5
2017-12-25T06:46:45.983Z,5
2017-12-25T06:47:56.111Z,5
2017-12-25T06:49:06.153Z,5
2017-12-25T06:50:16.216Z,5
2017-12-25T06:51:26.008Z,5
2017-12-25T06:52:36.056Z,10
2017-12-25T06:53:46.107Z,10
2017-12-25T06:54:55.897Z,10
2017-12-25T06:56:05.690Z,10
2017-12-25T06:57:15.738Z,10
2017-12-25T06:58:25.582Z,15
2017-12-25T06:59:35.435Z,15
2017-12-25T07:00:45.485Z,15
2017-12-25T07:01:55.256Z,15
2017-12-25T07:03:05.048Z,15
2017-12-25T07:04:14.840Z,15
2017-12-25T07:05:24.625Z,15
2017-12-25T07:06:34.696Z,20
2017-12-25T07:07:44.486Z,20
2017-12-25T07:08:54.528Z,20
2017-12-25T07:10:04.635Z,20
2017-12-25T07:11:14.500Z,25
2017-12-25T07:12:24.046Z,25
2017-12-25T07:13:34.089Z,25
2017-12-25T07:14:44.125Z,30
2017-12-25T07:15:54.196Z,30
2017-12-25T07:17:04.668Z,35
2017-12-25T07:18:14.455Z,35
2017-12-25T07:19:24.517Z,35
2017-12-25T07:20:34.311Z,35
2017-12-25T07:21:44.411Z,35
2017-12-25T07:22:54.466Z,35
2017-12-25T07:24:04.536Z,40
2017-12-25T07:25:14.679Z,40
2017-12-25T07:26:24.718Z,40
2017-12-25T07:27:34.774Z,40
2017-12-25T07:28:44.562Z,45
2017-12-25T07:29:54.652Z,50
2017-12-25T07:31:04.733Z,50
2017-12-25T07:32:14.519Z,55
2017-12-25T07:33:24.625Z,50
2017-12-25T07:34:34.688Z,50
2017-12-25T07:35:44.739Z,50
2017-12-25T07:36:54.809Z,50
2017-12-25T07:38:04.590Z,50
2017-12-25T07:39:14.120Z,50
2017-12-25T07:40:24.187Z,50
2017-12-25T07:41:34.244Z,50
2017-12-25T07:42:44.291Z,55
2017-12-25T07:43:54.097Z,60
2017-12-25T07:45:04.147Z,55
2017-12-25T07:46:13.929Z,55
2017-12-25T07:47:23.722Z,60
2017-12-25T07:48:33.513Z,55
2017-12-25T07:49:43.568Z,55
2017-12-25T07:50:53.630Z,60
2017-12-25T07:52:03.687Z,60
2017-12-25T07:53:13.481Z,60
2017-12-25T07:54:23.532Z,60
2017-12-25T07:55:33.315Z,60
2017-12-25T07:56:43.119Z,65
2017-12-25T07:57:53.187Z,65
2017-12-25T07:59:03.249Z,65
2017-12-25T08:00:13.301Z,65
2017-12-25T08:01:23.357Z,70
2017-12-25T08:02:33.152Z,75
2017-12-25T08:03:43.001Z,75
2017-12-25T08:04:52.786Z,80
2017-12-25T08:06:02.569Z,80
2017-12-25T08:07:12.643Z,80
2017-12-25T08:08:22.175Z,80
2017-12-25T08:09:32.293Z,80
2017-12-25T08:10:42.358Z,85
2017-12-25T08:11:52.437Z,85
2017-12-25T08:13:02.738Z,85
2017-12-25T08:14:12.554Z,85
2017-12-25T08:15:22.598Z,85
2017-12-25T08:16:32.655Z,85
2017-12-25T08:17:42.711Z,90
2017-12-25T08:18:52.757Z,90
2017-12-25T08:20:02.800Z,90
2017-12-25T08:21:12.586Z,90
2017-12-25T08:22:22.407Z,95
2017-12-25T08:23:32.469Z,95
2017-12-25T08:24:42.560Z,95
2017-12-25T08:25:52.623Z,95
2017-12-25T08:27:02.802Z,95
2017-12-25T08:28:12.591Z,95
2017-12-25T08:29:21.884Z,95
2017-12-25T08:30:31.950Z,95
2017-12-25T08:31:41.760Z,95
2017-12-25T08:32:51.868Z,95
2017-12-25T08:34:01.672Z,95
2017-12-25T08:35:11.739Z,95
2017-12-25T08:36:21.557Z,100
2017-12-25T08:37:31.618Z,100
2017-12-25T08:38:41.717Z,105
2017-12-25T08:39:51.538Z,105
2017-12-25T08:41:01.595Z,100
2017-12-25T08:42:11.686Z,105
2017-12-25T08:43:21.780Z,100
2017-12-25T08:44:31.643Z,105
2017-12-25T08:45:41.704Z,100
2017-12-25T08:46:51.810Z,105
2017-12-25T08:48:01.882Z,105
2017-12-25T08:49:11.935Z,105
2017-12-25T08:50:22.012Z,110
2017-12-25T08:51:31.565Z,110
2017-12-25T08:52:41.614Z,115
2017-12-25T08:53:51.695Z,115
2017-12-25T08:55:01.750Z,115
2017-12-25T08:56:11.545Z,115
2017-12-25T08:57:21.576Z,115
2017-12-25T08:58:31.658Z,115
2017-12-25T08:59:41.724Z,115
2017-12-25T09:00:51.819Z,115
2017-12-25T09:02:01.882Z,120
2017-12-25T09:03:11.935Z,120
2017-12-25T09:04:21.469Z,120
2017-12-25T09:05:31.527Z,120
2017-12-25T09:06:41.315Z,120
2017-12-25T09:07:51.366Z,120
2017-12-25T09:09:01.414Z,120
2017-12-25T09:10:11.199Z,125
2017-12-25T09:11:21.262Z,125
2017-12-25T09:12:31.323Z,125
2017-12-25T09:13:41.129Z,125
2017-12-25T09:14:50.926Z,125
2017-12-25T09:16:00.997Z,125
2017-12-25T09:17:11.051Z,130
2017-12-25T09:18:20.840Z,130
2017-12-25T09:19:30.639Z,135
2017-12-25T09:20:40.444Z,130
2017-12-25T09:21:50.510Z,130
2017-12-25T09:23:00.318Z,130
2017-12-25T09:24:10.107Z,135
2017-12-25T09:25:19.926Z,130
2017-12-25T09:26:29.987Z,140
2017-12-25T09:27:40.068Z,135
2017-12-25T09:28:50.116Z,135
2017-12-25T09:29:59.919Z,135
2017-12-25T09:31:09.972Z,135
2017-12-25T09:32:20.026Z,135
2017-12-25T09:33:30.076Z,135
2017-12-25T09:34:40.213Z,140
2017-12-25T09:35:50.034Z,140
2017-12-25T09:37:00.150Z,140
2017-12-25T09:38:10.201Z,140
2017-12-25T09:39:19.988Z,140
2017-12-25T09:40:30.048Z,140
2017-12-25T09:41:40.772Z,145
2017-12-25T09:42:50.826Z,145
2017-12-25T09:44:00.901Z,145
2017-12-25T09:45:10.977Z,145
2017-12-25T09:46:21.035Z,145
2017-12-25T09:47:31.123Z,145
2017-12-25T09:48:41.209Z,145
2017-12-25T09:49:51.008Z,145
2017-12-25T09:51:01.082Z,145
2017-12-25T09:52:10.892Z,310
2017-12-25T09:53:20.950Z,295
2017-12-25T09:54:31.018Z,255
2017-12-25T09:55:40.846Z,235
2017-12-25T09:56:50.930Z,210
2017-12-25T09:58:01.011Z,155
2017-12-25T09:59:11.065Z,150
2017-12-25T10:00:21.225Z,145
2017-12-25T10:01:31.287Z,145
2017-12-25T10:02:41.376Z,145
2017-12-25T10:03:51.460Z,140
2017-12-25T10:05:01.523Z,135
2017-12-25T10:06:11.331Z,140
2017-12-25T10:07:21.399Z,150
2017-12-25T10:08:31.475Z,150
2017-12-25T10:09:41.540Z,150
2017-12-25T10:10:51.611Z,150
2017-12-25T10:12:01.694Z,155
2017-12-25T10:13:11.496Z,155
2017-12-25T10:14:21.306Z,150
2017-12-25T10:15:31.106Z,150
2017-12-25T10:16:40.890Z,150
2017-12-25T10:17:51.005Z,155
2017-12-25T10:19:01.069Z,155
2017-12-25T10:20:10.877Z,155
2017-12-25T10:21:20.681Z,155
2017-12-25T10:22:30.745Z,155
2017-12-25T10:23:40.553Z,155
2017-12-25T10:24:50.342Z,160
2017-12-25T10:26:00.414Z,155
2017-12-25T10:27:10.871Z,160
2017-12-25T10:28:20.942Z,155
2017-12-25T10:29:30.795Z,155
2017-12-25T10:30:40.849Z,155
2017-12-25T10:31:50.908Z,150
2017-12-25T10:33:01.009Z,145
2017-12-25T10:34:11.074Z,155
2017-12-25T10:35:21.187Z,155
2017-12-25T10:36:31.270Z,150
2017-12-25T10:37:40.825Z,155
2017-12-25T10:38:50.098Z,150
2017-12-25T10:40:00.170Z,155
2017-12-25T10:41:10.229Z,155
2017-12-25T10:42:20.295Z,155
2017-12-25T10:43:30.362Z,155
2017-12-25T10:44:40.409Z,155
2017-12-25T10:45:50.466Z,155
2017-12-25T10:47:00.530Z,155
2017-12-25T10:48:10.334Z,155
2017-12-25T10:49:20.151Z,155
2017-12-25T10:50:30.191Z,160
2017-12-25T10:51:39.986Z,155
2017-12-25T10:52:50.058Z,155
2017-12-25T10:53:59.870Z,155
2017-12-25T10:55:09.956Z,155
2017-12-25T10:56:19.749Z,155
2017-12-25T10:57:29.843Z,155
2017-12-25T10:58:39.921Z,155
2017-12-25T10:59:49.994Z,155
2017-12-25T11:00:59.793Z,160
2017-12-25T11:02:09.845Z,160
2017-12-25T11:03:19.919Z,160
2017-12-25T11:04:30.862Z,165
2017-12-25T11:05:40.984Z,165
2017-12-25T11:06:51.049Z,165
2017-12-25T11:08:00.850Z,165
2017-12-25T11:09:10.383Z,165
2017-12-25T11:10:20.438Z,165
2017-12-25T11:11:30.237Z,165
2017-12-25T11:12:39.549Z,165
2017-12-25T11:13:49.622Z,165
2017-12-25T11:14:59.440Z,165
2017-12-25T11:16:09.563Z,165
2017-12-25T11:17:19.619Z,165
2017-12-25T11:18:29.459Z,165
2017-12-25T11:19:39.276Z,165
2017-12-25T11:20:49.069Z,160
2017-12-25T11:21:58.928Z,170
2017-12-25T11:23:08.716Z,165
2017-12-25T11:24:19.687Z,165
2017-12-25T11:25:29.247Z,165
2017-12-25T11:26:39.308Z,165
2017-12-25T11:27:49.434Z,165
2017-12-25T11:28:59.498Z,165
2017-12-25T11:30:09.296Z,165
2017-12-25T11:31:18.823Z,165
2017-12-25T11:32:28.617Z,165
2017-12-25T11:33:38.426Z,165
2017-12-25T11:34:48.618Z,165
2017-12-25T11:35:58.153Z,165
2017-12-25T11:37:08.015Z,165
2017-12-25T11:38:18.077Z,170
2017-12-25T11:39:28.150Z,165
2017-12-25T11:40:37.935Z,165
2017-12-25T11:41:47.990Z,170
2017-12-25T11:42:58.071Z,165
2017-12-25T11:44:08.211Z,165
2017-12-25T11:45:17.819Z,165
2017-12-25T11:46:27.701Z,165
2017-12-25T11:47:37.246Z,165
2017-12-25T11:48:46.801Z,160
2017-12-25T11:49:56.605Z,160
2017-12-25T11:51:06.392Z,160
2017-12-25T11:52:16.198Z,160
2017-12-25T11:53:25.806Z,160
2017-12-25T11:54:35.919Z,160
2017-12-25T11:55:45.718Z,160
2017-12-25T11:56:55.245Z,160
2017-12-25T11:58:05.041Z,160
2017-12-25T11:59:14.854Z,160
2017-12-25T12:00:24.642Z,160
2017-12-25T12:01:34.713Z,160
2017-12-25T12:02:44.503Z,160
2017-12-25T12:03:54.313Z,160
2017-12-25T12:05:03.865Z,155
2017-12-25T12:06:13.666Z,155
2017-12-25T12:07:23.471Z,155
2017-12-25T12:08:33.282Z,155
2017-12-25T12:09:43.334Z,155
2017-12-25T12:10:53.375Z,150
2017-12-25T12:12:03.182Z,145
2017-12-25T12:13:12.721Z,150
2017-12-25T12:14:22.790Z,155
2017-12-25T12:15:32.169Z,155
2017-12-25T12:16:41.723Z,155
2017-12-25T12:17:51.524Z,155
2017-12-25T12:19:00.814Z,155
2017-12-25T12:20:10.620Z,155
2017-12-25T12:21:20.430Z,155
2017-12-25T12:22:29.954Z,155
2017-12-25T12:23:39.825Z,155
2017-12-25T12:24:49.629Z,155
2017-12-25T12:25:59.418Z,155
2017-12-25T12:27:09.485Z,155
2017-12-25T12:28:18.762Z,155
2017-12-25T12:29:28.601Z,155
2017-12-25T12:30:38.476Z,155
2017-12-25T12:31:48.604Z,155
2017-12-25T12:32:58.534Z,155
2017-12-25T12:34:08.487Z,155
2017-12-25T12:35:18.372Z,155
2017-12-25T12:36:28.473Z,155
2017-12-25T12:37:38.567Z,155
2017-12-25T12:38:48.153Z,150
2017-12-25T12:39:58.302Z,150
2017-12-25T12:41:08.417Z,150
2017-12-25T12:42:18.282Z,150
2017-12-25T12:43:29.673Z,150
2017-12-25T12:44:40.079Z,150
2017-12-25T12:45:50.198Z,145
2017-12-25T12:47:00.283Z,145
2017-12-25T12:48:21.858Z,145
2017-12-25T12:49:31.414Z,140
2017-12-25T12:50:41.233Z,140
2017-12-25T12:51:50.817Z,140
2017-12-25T12:53:00.617Z,140
2017-12-25T12:54:10.462Z,140
2017-12-25T12:55:20.550Z,140
2017-12-25T12:56:29.981Z,140
2017-12-25T12:57:40.071Z,135
2017-12-25T12:58:49.923Z,135
2017-12-25T12:59:59.864Z,135
2017-12-25T13:01:09.695Z,130
2017-12-25T13:02:19.531Z,130
2017-12-25T13:03:29.618Z,125
2017-12-25T13:04:39.457Z,125
2017-12-25T13:05:49.356Z,125
2017-12-25T13:06:59.190Z,120
2017-12-25T13:08:09.017Z,120
2017-12-25T13:09:19.205Z,120
2017-12-25T13:10:29.027Z,120
2017-12-25T13:11:38.714Z,115
2017-12-25T13:12:48.574Z,115
2017-12-25T13:13:58.432Z,120
2017-12-25T13:15:08.278Z,115
2017-12-25T13:16:18.371Z,110
2017-12-25T13:17:27.471Z,110
2017-12-25T13:18:37.067Z,110
2017-12-25T13:19:46.956Z,110
2017-12-25T13:20:57.044Z,110
2017-12-25T13:22:06.595Z,105
2017-12-25T13:23:16.404Z,105
2017-12-25T13:24:26.450Z,105
2017-12-25T13:25:37.180Z,105
2017-12-25T13:26:47.012Z,100
2017-12-25T13:27:56.577Z,100
2017-12-25T13:29:06.446Z,100
2017-12-25T13:30:16.014Z,105
2017-12-25T13:31:25.568Z,95
2017-12-25T13:32:35.654Z,95
2017-12-25T13:33:45.006Z,95
2017-12-25T13:34:55.109Z,95
2017-12-25T13:36:06.012Z,95
2017-12-25T13:37:16.107Z,90
2017-12-25T13:38:25.917Z,90
2017-12-25T13:39:36.833Z,90
2017-12-25T13:40:47.235Z,90
2017-12-25T13:41:56.535Z,85
2017-12-25T13:43:06.364Z,85
2017-12-25T13:44:16.442Z,85
2017-12-25T13:45:26.283Z,85
2017-12-25T13:46:36.440Z,85
2017-12-25T13:47:46.547Z,85
2017-12-25T13:48:56.382Z,85
2017-12-25T13:50:06.495Z,85
2017-12-25T13:51:16.102Z,80
2017-12-25T13:52:25.704Z,80
2017-12-25T13:53:35.798Z,80
2017-12-25T13:54:45.920Z,75
2017-12-25T13:55:56.035Z,75
2017-12-25T13:57:05.849Z,75
2017-12-25T13:58:15.679Z,75
2017-12-25T13:59:25.754Z,70
2017-12-25T14:00:35.565Z,70
2017-12-25T14:01:45.659Z,70
2017-12-25T14:02:56.182Z,65
2017-12-25T14:04:05.791Z,65
2017-12-25T14:05:15.327Z,65
2017-12-25T14:06:25.150Z,60
2017-12-25T14:07:35.266Z,60
2017-12-25T14:08:45.099Z,60
2017-12-25T14:09:54.975Z,55
2017-12-25T14:11:05.105Z,55
2017-12-25T14:12:14.974Z,50
2017-12-25T14:13:24.786Z,50
2017-12-25T14:14:34.596Z,50
2017-12-25T14:15:44.763Z,50
2017-12-25T14:16:54.594Z,45
2017-12-25T14:18:04.700Z,45
2017-12-25T14:19:14.760Z,45
2017-12-25T14:20:24.563Z,45
2017-12-25T14:21:34.666Z,40
2017-12-25T14:22:43.950Z,40
2017-12-25T14:23:53.785Z,35
2017-12-25T14:25:03.595Z,35
2017-12-25T14:26:13.607Z,35
2017-12-25T14:27:23.147Z,30
2017-12-25T14:28:33.206Z,30
2017-12-25T14:29:43.477Z,30
2017-12-25T14:30:53.548Z,30
2017-12-25T14:32:03.591Z,25
2017-12-25T14:33:13.458Z,25
2017-12-25T14:34:23.538Z,25
2017-12-25T14:35:34.588Z,25
2017-12-25T14:36:44.381Z,25
2017-12-25T14:37:54.188Z,20
2017-12-25T14:39:04.301Z,20
2017-12-25T14:40:15.152Z,20
2017-12-25T14:41:25.227Z,20
2017-12-25T14:42:35.953Z,20
2017-12-25T14:43:46.015Z,15
2017-12-25T14:44:55.869Z,15
2017-12-25T14:46:05.934Z,15
2017-12-25T14:47:16.024Z,15
2017-12-25T14:48:25.828Z,15
2017-12-25T14:49:35.943Z,15
2017-12-25T14:50:46.059Z,10
2017-12-25T14:51:55.879Z,10
2017-12-25T14:53:05.949Z,10
2017-12-25T14:54:16.020Z,10
2017-12-25T14:55:26.106Z,10
2017-12-25T14:56:36.247Z,10
2017-12-25T14:57:46.329Z,5
2017-12-25T14:58:56.403Z,5
2017-12-25T15:00:06.207Z,5
2017-12-25T15:01:16.278Z,5
2017-12-25T15:02:26.427Z,5
2017-12-25T15:03:36.513Z,5
2017-12-25T15:04:46.316Z,5
2017-12-25T15:05:56.389Z,5
2017-12-25T15:07:06.214Z,5
2017-12-25T15:08:16.328Z,0
2017-12-25T15:09:26.375Z,0
2017-12-25T15:10:36.441Z,0
2017-12-25T15:11:46.259Z,0
2017-12-25T15:12:56.088Z,0
2017-12-25T15:14:06.171Z,0
2017-12-25T15:15:16.264Z,0
2017-12-25T15:16:26.354Z,0
2017-12-25T15:17:36.426Z,0
2017-12-25T15:18:46.232Z,0
2017-12-25T15:19:56.362Z,0
2017-12-25T15:21:06.987Z,0
2017-12-25T15:22:17.217Z,0
2017-12-25T15:23:27.023Z,0
2017-12-25T15:24:37.079Z,0
2017-12-25T15:25:47.199Z,0
2017-12-25T15:26:57.306Z,0
2017-12-25T15:28:07.421Z,0
2017-12-25T15:29:17.238Z,0
2017-12-25T15:30:27.303Z,0
2017-12-25T15:31:37.389Z,0
2017-12-25T15:32:47.461Z,0
2017-12-25T15:33:57.532Z,0
2017-12-25T15:35:07.671Z,0
2017-12-25T15:36:17.771Z,0
2017-12-25T15:37:27.876Z,0
2017-12-25T15:38:37.669Z,0
2017-12-25T15:39:47.737Z,0
2017-12-25T15:40:57.797Z,0
2017-12-25T15:42:07.790Z,0
2017-12-25T15:43:17.961Z,0
2017-12-25T15:44:28.038Z,0
2017-12-25T15:45:38.121Z,0
2017-12-25T15:46:48.189Z,0
2017-12-25T15:47:58.251Z,0
2017-12-25T15:49:08.358Z,0
2017-12-25T15:50:18.169Z,0
2017-12-25T15:51:27.969Z,0
2017-12-25T15:52:38.067Z,0
2017-12-25T15:53:48.148Z,0
2017-12-25T15:54:58.276Z,0
2017-12-25T15:56:08.088Z,0
2017-12-25T15:57:17.903Z,0
2017-12-25T15:58:28.781Z,0
2017-12-25T15:59:38.861Z,0
2017-12-25T16:00:48.661Z,0
2017-12-25T16:01:58.718Z,0
2017-12-25T16:03:08.780Z,0
2017-12-25T16:04:19.286Z,0
2017-12-25T16:05:29.363Z,0
2017-12-25T16:06:39.497Z,0
2017-12-25T16:07:49.366Z,0
2017-12-25T16:08:59.417Z,0
2017-12-25T16:10:09.493Z,0
2017-12-25T16:11:19.667Z,0
2017-12-25T16:12:29.794Z,0
2017-12-25T16:13:39.863Z,0
2017-12-25T16:14:49.922Z,0
2017-12-25T16:15:59.995Z,0
2017-12-25T16:17:10.090Z,0
2017-12-25T16:18:20.202Z,0
2017-12-25T16:19:30.015Z,0
2017-12-25T16:20:39.833Z,0
2017-12-25T16:21:49.898Z,0
2017-12-25T16:22:59.961Z,0
2017-12-25T16:24:09.862Z,0
2017-12-25T16:25:19.928Z,0
2017-12-25T16:26:29.998Z,0
2017-12-25T16:27:39.813Z,0
2017-12-25T16:28:49.347Z,0
2017-12-25T16:29:59.457Z,0
2017-12-25T16:31:09.309Z,0
2017-12-25T16:32:19.114Z,0
2017-12-25T16:33:28.926Z,0
2017-12-25T16:34:38.979Z,0
2017-12-25T16:35:49.055Z,0
2017-12-25T16:36:59.158Z,0
2017-12-25T16:38:08.951Z,0
2017-12-25T16:39:19.016Z,0
2017-12-25T16:40:29.098Z,0
2017-12-25T16:41:39.232Z,0
2017-12-25T16:42:49.356Z,0
2017-12-25T16:43:59.413Z,0
2017-12-25T16:45:09.227Z,0
2017-12-25T16:46:19.301Z,0
2017-12-25T16:47:29.436Z,0
2017-12-25T16:48:39.264Z,0
2017-12-25T16:49:49.337Z,0
2017-12-25T16:50:59.437Z,0
2017-12-25T16:52:09.232Z,0
2017-12-25T16:53:19.038Z,0
2017-12-25T16:54:29.100Z,0
2017-12-25T16:55:39.160Z,0
2017-12-25T16:56:48.967Z,0
2017-12-25T16:57:58.803Z,0
2017-12-25T16:59:08.965Z,0
2017-12-25T17:00:19.021Z,0
2017-12-25T17:01:29.086Z,0
2017-12-25T17:02:38.901Z,0
2017-12-25T17:03:48.734Z,0
2017-12-25T17:04:59.041Z,0
2017-12-25T17:06:09.123Z,0
2017-12-25T17:07:18.910Z,0
2017-12-25T17:08:28.712Z,0
2017-12-25T17:09:38.773Z,0
2017-12-25T17:10:48.656Z,0
2017-12-25T17:11:58.730Z,0
2017-12-25T17:13:08.554Z,0
2017-12-25T17:14:18.692Z,0
2017-12-25T17:15:28.756Z,0
2017-12-25T17:16:38.847Z,0